createdAt,value
2022-08-21T00:03:27.783Z,78.41
2022-08-21T00:13:30.525Z,79.09
2022-08-21T00:23:35.397Z,79.46
2022-08-21T00:33:38.119Z,79.17
2022-08-21T00:43:42.399Z,79.35
2022-08-21T00:53:51.721Z,78.99
2022-08-21T01:03:57.827Z,79.87
2022-08-21T01:14:00.944Z,80.69
2022-08-21T01:24:05.564Z,80.98
2022-08-21T01:34:09.438Z,80.59
2022-08-21T01:44:13.556Z,80.81
2022-08-21T01:54:16.297Z,81.02
2022-08-21T02:04:20.316Z,81.00
2022-08-21T02:14:32.852Z,81.26
2022-08-21T02:24:50.167Z,80.88
2022-08-21T02:34:57.588Z,81.10
2022-08-21T02:45:01.628Z,81.72
2022-08-21T02:55:04.738Z,81.67
2022-08-21T03:05:12.044Z,81.70
2022-08-21T03:15:18.188Z,81.53
2022-08-21T03:25:33.309Z,81.73
2022-08-21T03:35:45.056Z,81.64
2022-08-21T03:45:49.276Z,82.68
2022-08-21T03:55:53.440Z,82.58
2022-08-21T04:05:57.789Z,83.52
2022-08-21T04:16:00.493Z,83.26
2022-08-21T04:26:04.973Z,83.31
2022-08-21T04:36:08.798Z,83.23
2022-08-21T04:46:13.526Z,83.23
2022-08-21T04:56:22.347Z,83.27
2022-08-21T05:06:27.443Z,83.50
2022-08-21T05:16:37.355Z,84.70
2022-08-21T05:26:46.176Z,84.68
2022-08-21T05:36:49.500Z,85.90
2022-08-21T05:46:53.672Z,85.48
2022-08-21T05:56:56.395Z,85.19
2022-08-21T06:07:00.457Z,84.57
2022-08-21T06:17:06.605Z,84.79
2022-08-21T06:27:11.234Z,83.97
2022-08-21T06:37:13.918Z,83.65
2022-08-21T06:47:17.991Z,82.73
2022-08-21T06:57:20.693Z,81.52
2022-08-21T07:07:24.787Z,80.81
2022-08-21T07:17:27.472Z,79.66
2022-08-21T07:27:32.354Z,78.47
2022-08-21T07:37:35.177Z,77.47
2022-08-21T07:47:42.053Z,75.63
2022-08-21T07:57:45.745Z,75.26
2022-08-21T08:07:50.058Z,74.15
2022-08-21T08:17:53.253Z,72.25
2022-08-21T08:27:57.324Z,69.69
2022-08-21T08:38:00.802Z,66.68
2022-08-21T08:48:14.279Z,64.18
2022-08-21T08:58:22.096Z,61.44
2022-08-21T09:08:40.575Z,58.86
2022-08-21T09:18:55.946Z,58.31
2022-08-21T09:29:02.378Z,56.93
2022-08-21T09:39:05.543Z,56.52
2022-08-21T09:49:14.934Z,55.87
2022-08-21T09:59:22.811Z,56.18
2022-08-21T10:09:26.828Z,57.18
2022-08-21T10:19:37.919Z,52.97
2022-08-21T10:29:51.304Z,51.19
2022-08-21T10:40:04.497Z,50.56
2022-08-21T10:50:17.101Z,49.42
2022-08-21T11:00:23.004Z,49.34
2022-08-21T11:10:33.031Z,48.55
2022-08-21T11:20:43.931Z,46.20
2022-08-21T11:30:58.653Z,45.73
2022-08-21T11:41:09.095Z,28.78
2022-08-21T11:51:17.827Z,23.25
2022-08-21T12:01:24.247Z,19.84
2022-08-21T12:11:30.994Z,17.43
2022-08-21T12:21:34.747Z,18.32
2022-08-21T12:31:50.794Z,19.80
2022-08-21T12:42:01.987Z,18.69
2022-08-21T12:52:13.186Z,19.63
2022-08-21T13:02:20.782Z,29.22
2022-08-21T13:12:28.383Z,31.94
2022-08-21T13:22:41.932Z,34.94
2022-08-21T13:32:52.213Z,36.05
2022-08-21T13:42:55.773Z,37.36
2022-08-21T13:53:02.819Z,39.92
2022-08-21T14:03:10.023Z,41.43
2022-08-21T14:13:35.890Z,41.94
2022-08-21T14:23:41.031Z,43.67
2022-08-21T14:33:45.672Z,44.50
2022-08-21T14:43:59.805Z,44.96
2022-08-21T14:54:12.868Z,46.05
2022-08-21T15:04:15.646Z,50.56
2022-08-21T15:14:22.666Z,55.21
2022-08-21T15:24:25.612Z,56.31
2022-08-21T15:34:32.068Z,57.58
2022-08-21T15:44:34.941Z,56.93
2022-08-21T15:54:38.967Z,56.76
2022-08-21T16:04:41.734Z,57.95
2022-08-21T16:14:45.813Z,60.26
2022-08-21T16:24:48.550Z,60.35
2022-08-21T16:34:52.608Z,60.09
2022-08-21T16:44:57.285Z,59.25
2022-08-21T16:55:01.331Z,59.38
2022-08-21T17:05:06.515Z,60.57
2022-08-21T17:15:21.160Z,60.87
2022-08-21T17:25:24.986Z,61.61
2022-08-21T17:35:29.397Z,62.96
2022-08-21T17:45:32.146Z,63.98
2022-08-21T17:55:41.836Z,64.03
2022-08-21T18:05:46.756Z,65.01
2022-08-21T18:15:53.941Z,65.29
2022-08-21T18:25:58.928Z,66.03
2022-08-21T18:36:04.586Z,66.14
2022-08-21T18:46:07.545Z,66.75
2022-08-21T18:56:15.531Z,67.68
2022-08-21T19:06:19.005Z,67.94
2022-08-21T19:16:23.691Z,68.18
2022-08-21T19:26:28.980Z,68.66
2022-08-21T19:36:34.411Z,68.91
2022-08-21T19:46:40.340Z,69.42
2022-08-21T19:56:45.930Z,69.61
2022-08-21T20:06:50.421Z,70.94
2022-08-21T20:16:55.249Z,71.48
2022-08-21T20:26:58.521Z,71.38
2022-08-21T20:37:02.731Z,71.48
2022-08-21T20:47:09.445Z,72.79
2022-08-21T20:57:21.912Z,73.89
2022-08-21T21:07:28.925Z,74.18
2022-08-21T21:17:40.082Z,74.57
2022-08-21T21:27:49.236Z,74.23
2022-08-21T21:37:59.634Z,74.72
2022-08-21T21:48:13.358Z,75.18
2022-08-21T21:58:38.369Z,75.57
2022-08-21T22:08:48.872Z,75.55
2022-08-21T22:18:59.808Z,75.17
2022-08-21T22:29:05.782Z,75.83
2022-08-21T22:39:19.044Z,75.70
2022-08-21T22:49:33.512Z,75.88
2022-08-21T22:59:41.884Z,75.72
2022-08-21T23:09:48.557Z,75.87
2022-08-21T23:20:03.665Z,76.31
2022-08-21T23:30:10.602Z,76.72
2022-08-21T23:51:12.798Z,77.44
